createdAt,value
2018-03-21T00:02:24.342Z,99567.67
2018-03-21T00:04:52.854Z,99571.38
2018-03-21T00:07:21.357Z,99575.56
2018-03-21T00:09:49.851Z,99571.34
2018-03-21T00:12:18.319Z,99579.64
2018-03-21T00:14:46.814Z,99572.07
2018-03-21T00:17:15.320Z,99589.30
2018-03-21T00:19:43.794Z,99596.12
2018-03-21T00:22:12.293Z,99601.68
2018-03-21T00:24:40.794Z,99592.75
2018-03-21T00:27:09.286Z,99597.56
2018-03-21T00:29:37.818Z,99595.11
2018-03-21T00:32:06.279Z,99577.92
2018-03-21T00:34:34.810Z,99598.28
2018-03-21T00:37:03.266Z,99604.19
2018-03-21T00:39:31.758Z,99600.23
2018-03-21T00:42:00.228Z,99587.76
2018-03-21T00:44:28.725Z,99578.73
2018-03-21T00:46:57.195Z,99574.91
2018-03-21T00:49:25.707Z,99573.39
2018-03-21T00:51:54.258Z,99573.68
2018-03-21T00:54:22.725Z,99571.63
2018-03-21T00:56:51.221Z,99574.65
2018-03-21T00:59:19.673Z,99574.81
2018-03-21T01:01:48.182Z,99563.00
2018-03-21T01:04:16.642Z,99552.94
2018-03-21T01:06:45.114Z,99542.79
2018-03-21T01:09:13.581Z,99538.27
2018-03-21T01:11:42.046Z,99553.59
2018-03-21T01:14:10.554Z,99555.52
2018-03-21T01:16:39.046Z,99561.08
2018-03-21T01:19:07.515Z,99550.23
2018-03-21T01:21:36.050Z,99559.02
2018-03-21T01:24:04.570Z,99548.28
2018-03-21T01:26:33.074Z,99548.25
2018-03-21T01:29:01.551Z,99549.50
2018-03-21T01:31:30.076Z,99547.75
2018-03-21T01:33:58.541Z,99541.06
2018-03-21T01:36:27.023Z,99519.98
2018-03-21T01:38:55.547Z,99525.48
2018-03-21T01:41:24.085Z,99517.34
2018-03-21T01:43:52.662Z,99518.44
2018-03-21T01:46:21.164Z,99500.94
2018-03-21T01:48:49.670Z,99512.81
2018-03-21T01:51:18.123Z,99522.17
2018-03-21T01:53:47.596Z,99501.84
2018-03-21T01:56:16.098Z,99499.25
2018-03-21T01:58:44.574Z,99494.03
2018-03-21T02:01:13.090Z,99504.89
2018-03-21T02:03:41.559Z,99515.53
2018-03-21T02:06:10.068Z,99524.70
2018-03-21T02:08:38.546Z,99526.84
2018-03-21T02:11:07.081Z,99536.16
2018-03-21T02:13:35.565Z,99535.50
2018-03-21T02:16:04.039Z,99552.56
2018-03-21T02:18:32.538Z,99538.73
2018-03-21T02:21:01.011Z,99524.93
2018-03-21T02:23:29.505Z,99549.97
2018-03-21T02:25:58.006Z,99553.08
2018-03-21T02:28:26.514Z,99559.78
2018-03-21T02:30:54.995Z,99559.80
2018-03-21T02:33:23.450Z,99544.80
2018-03-21T02:35:51.957Z,99543.54
2018-03-21T02:38:20.445Z,99550.27
2018-03-21T02:40:48.975Z,99522.88
2018-03-21T02:43:17.670Z,99546.26
2018-03-21T02:45:46.187Z,99544.91
2018-03-21T02:48:14.671Z,99548.08
2018-03-21T02:50:43.146Z,99558.45
2018-03-21T02:53:11.645Z,99548.72
2018-03-21T02:55:40.135Z,99545.23
2018-03-21T02:58:08.595Z,99523.33
2018-03-21T03:00:37.093Z,99530.84
2018-03-21T03:03:05.606Z,99534.87
2018-03-21T03:05:34.134Z,99546.77
2018-03-21T03:08:02.639Z,99542.75
2018-03-21T03:10:31.142Z,99539.31
2018-03-21T03:12:59.688Z,99541.33
2018-03-21T03:15:28.184Z,99541.58
2018-03-21T03:17:56.695Z,99543.13
2018-03-21T03:20:25.164Z,99541.02
2018-03-21T03:22:53.618Z,99542.75
2018-03-21T03:25:22.110Z,99550.11
2018-03-21T03:27:50.614Z,99545.67
2018-03-21T03:30:19.107Z,99534.05
2018-03-21T03:32:47.593Z,99542.25
2018-03-21T03:35:16.080Z,99546.45
2018-03-21T03:37:44.598Z,99542.72
2018-03-21T03:40:13.103Z,99541.77
2018-03-21T03:42:41.597Z,99528.77
2018-03-21T03:45:10.075Z,99520.79
2018-03-21T03:47:38.549Z,99516.98
2018-03-21T03:50:07.049Z,99513.36
2018-03-21T03:52:35.521Z,99522.58
2018-03-21T03:55:04.027Z,99526.48
2018-03-21T03:57:32.628Z,99517.62
2018-03-21T04:00:01.092Z,99520.89
2018-03-21T04:02:29.630Z,99521.22
2018-03-21T04:04:58.130Z,99516.79
2018-03-21T04:07:26.648Z,99529.16
2018-03-21T04:09:55.133Z,99530.84
2018-03-21T04:12:23.620Z,99538.69
2018-03-21T04:14:52.162Z,99542.40
2018-03-21T04:17:20.619Z,99546.23
2018-03-21T04:19:49.160Z,99540.84
2018-03-21T04:22:17.746Z,99553.59
2018-03-21T04:24:46.255Z,99551.81
2018-03-21T04:27:14.727Z,99551.20
2018-03-21T04:29:43.188Z,99553.63
2018-03-21T04:32:11.726Z,99540.69
2018-03-21T04:34:40.183Z,99556.84
2018-03-21T04:37:08.692Z,99549.91
2018-03-21T04:39:37.162Z,99551.13
2018-03-21T04:42:05.682Z,99557.84
2018-03-21T04:44:34.171Z,99557.45
2018-03-21T04:47:02.690Z,99559.45
2018-03-21T04:49:31.212Z,99562.00
2018-03-21T04:51:59.709Z,99561.00
2018-03-21T04:54:28.222Z,99568.50
2018-03-21T04:56:56.738Z,99561.38
2018-03-21T04:59:25.216Z,99556.55
2018-03-21T05:01:53.739Z,99551.80
2018-03-21T05:04:22.266Z,99552.90
2018-03-21T05:06:50.758Z,99552.30
2018-03-21T05:09:19.266Z,99545.20
2018-03-21T05:11:47.737Z,99557.86
2018-03-21T05:14:16.221Z,99555.75
2018-03-21T05:16:44.739Z,99557.90
2018-03-21T05:19:13.209Z,99551.86
2018-03-21T05:21:41.722Z,99550.54
2018-03-21T05:24:10.222Z,99551.99
2018-03-21T05:26:38.683Z,99571.49
2018-03-21T05:29:07.178Z,99573.78
2018-03-21T05:31:35.678Z,99565.38
2018-03-21T05:34:04.154Z,99570.17
2018-03-21T05:36:32.764Z,99558.16
2018-03-21T05:39:01.226Z,99560.19
2018-03-21T05:41:29.706Z,99546.63
2018-03-21T05:43:58.213Z,99539.14
2018-03-21T05:46:26.718Z,99550.82
2018-03-21T05:48:55.246Z,99555.78
2018-03-21T05:51:23.718Z,99573.38
2018-03-21T05:53:52.224Z,99573.92
2018-03-21T05:56:20.696Z,99581.93
2018-03-21T05:58:49.202Z,99583.62
2018-03-21T06:01:17.705Z,99600.83
2018-03-21T06:03:46.166Z,99596.16
2018-03-21T06:06:14.686Z,99595.58
2018-03-21T06:08:43.188Z,99601.53
2018-03-21T06:11:11.703Z,99603.48
2018-03-21T06:13:40.191Z,99594.78
2018-03-21T06:16:08.694Z,99607.77
2018-03-21T06:18:37.226Z,99602.62
2018-03-21T06:21:05.750Z,99603.36
2018-03-21T06:23:34.224Z,99586.64
2018-03-21T06:26:02.738Z,99598.23
2018-03-21T06:28:31.202Z,99611.05
2018-03-21T06:30:59.675Z,99587.79
2018-03-21T06:33:28.182Z,99599.98
2018-03-21T06:35:56.661Z,99610.25
2018-03-21T06:38:25.117Z,99633.18
2018-03-21T06:40:53.689Z,99630.41
2018-03-21T06:43:22.155Z,99612.52
2018-03-21T06:45:50.662Z,99626.16
2018-03-21T06:48:19.194Z,99632.70
2018-03-21T06:50:47.730Z,99620.69
2018-03-21T06:53:16.238Z,99623.91
2018-03-21T06:55:44.781Z,99620.59
2018-03-21T06:58:13.243Z,99622.86
2018-03-21T07:00:41.713Z,99631.42
2018-03-21T07:03:10.233Z,99619.75
2018-03-21T07:05:38.749Z,99624.33
2018-03-21T07:08:07.299Z,99625.10
2018-03-21T07:10:35.825Z,99585.45
2018-03-21T07:13:04.290Z,99625.44
2018-03-21T07:15:44.446Z,99635.08
2018-03-21T07:18:12.942Z,99642.80
2018-03-21T07:20:41.458Z,99628.47
2018-03-21T07:23:10.018Z,99636.93
2018-03-21T07:25:38.560Z,99631.98
2018-03-21T07:28:07.127Z,99648.92
2018-03-21T07:30:35.684Z,99638.38
2018-03-21T07:33:04.170Z,99638.81
2018-03-21T07:35:32.638Z,99636.36
2018-03-21T07:38:01.146Z,99640.80
2018-03-21T07:40:29.657Z,99638.48
2018-03-21T07:42:58.238Z,99643.42
2018-03-21T07:45:26.707Z,99636.57
2018-03-21T07:47:55.205Z,99632.91
2018-03-21T07:50:23.727Z,99623.30
2018-03-21T07:52:52.194Z,99627.48
2018-03-21T07:55:20.713Z,99644.78
2018-03-21T07:57:49.185Z,99638.98
2018-03-21T08:00:17.715Z,99646.66
2018-03-21T08:02:46.179Z,99644.75
2018-03-21T08:05:14.673Z,99642.27
2018-03-21T08:07:43.170Z,99645.00
2018-03-21T08:10:11.643Z,99637.56
2018-03-21T08:12:41.055Z,99640.31
2018-03-21T08:15:09.551Z,99635.63
2018-03-21T08:17:38.058Z,99640.72
2018-03-21T08:20:06.564Z,99639.20
2018-03-21T08:22:35.110Z,99642.39
2018-03-21T08:25:03.686Z,99647.83
2018-03-21T08:27:32.189Z,99643.92
2018-03-21T08:30:00.703Z,99647.73
2018-03-21T08:32:29.170Z,99650.37
2018-03-21T08:34:57.672Z,99641.70
2018-03-21T08:37:26.154Z,99626.10
2018-03-21T08:39:54.690Z,99611.69
2018-03-21T08:42:23.186Z,99603.04
2018-03-21T08:44:51.723Z,99582.54
2018-03-21T08:47:20.296Z,99550.63
2018-03-21T08:49:48.802Z,99546.58
2018-03-21T08:52:17.307Z,99556.29
2018-03-21T08:54:45.774Z,99569.17
2018-03-21T08:57:14.286Z,99575.81
2018-03-21T08:59:42.782Z,99583.80
2018-03-21T09:02:11.298Z,99585.70
2018-03-21T09:04:39.835Z,99572.34
2018-03-21T09:07:08.374Z,99565.68
2018-03-21T09:09:36.920Z,99526.38
2018-03-21T09:12:05.440Z,99534.58
2018-03-21T09:14:33.963Z,99519.57
2018-03-21T09:17:02.466Z,99558.09
2018-03-21T09:19:30.934Z,99552.98
2018-03-21T09:21:59.430Z,99548.63
2018-03-21T09:24:27.966Z,99548.72
2018-03-21T09:26:56.514Z,99555.67
2018-03-21T09:29:24.988Z,99536.67
2018-03-21T09:31:53.516Z,99551.20
2018-03-21T09:34:22.010Z,99548.83
2018-03-21T09:36:50.530Z,99538.43
2018-03-21T09:39:19.068Z,99548.23
2018-03-21T09:41:47.627Z,99574.91
2018-03-21T09:44:16.212Z,99591.10
2018-03-21T09:46:44.757Z,99606.05
2018-03-21T09:49:13.278Z,99597.57
2018-03-21T09:51:41.742Z,99591.76
2018-03-21T09:54:10.284Z,99587.04
2018-03-21T09:56:38.830Z,99578.38
2018-03-21T09:59:07.309Z,99575.67
2018-03-21T10:01:35.822Z,99585.30
2018-03-21T10:04:04.330Z,99584.62
2018-03-21T10:06:32.902Z,99551.25
2018-03-21T10:09:01.415Z,99566.37
2018-03-21T10:11:29.922Z,99581.90
2018-03-21T10:13:58.418Z,99591.34
2018-03-21T10:16:26.882Z,99575.71
2018-03-21T10:18:55.390Z,99562.08
2018-03-21T10:21:23.894Z,99545.38
2018-03-21T10:23:52.362Z,99567.55
2018-03-21T10:26:20.882Z,99557.50
2018-03-21T10:28:49.382Z,99530.02
2018-03-21T10:31:17.897Z,99525.27
2018-03-21T10:33:46.378Z,99544.58
2018-03-21T10:36:14.902Z,99555.29
2018-03-21T10:38:43.433Z,99531.95
2018-03-21T10:41:11.954Z,99525.61
2018-03-21T10:43:40.511Z,99505.48
2018-03-21T10:46:08.986Z,99500.37
2018-03-21T10:48:37.462Z,99521.30
2018-03-21T10:51:06.034Z,99530.55
2018-03-21T10:53:34.494Z,99545.30
2018-03-21T10:56:03.003Z,99537.23
2018-03-21T10:58:31.595Z,99549.76
2018-03-21T11:01:00.090Z,99546.70
2018-03-21T11:03:28.608Z,99536.72
2018-03-21T11:05:57.173Z,99543.02
2018-03-21T11:08:25.698Z,99544.52
2018-03-21T11:10:54.161Z,99532.78
2018-03-21T11:13:22.685Z,99558.06
2018-03-21T11:15:51.149Z,99561.77
2018-03-21T11:18:20.228Z,99559.60
2018-03-21T11:20:48.737Z,99562.86
2018-03-21T11:23:17.206Z,99557.23
2018-03-21T11:25:45.714Z,99561.66
2018-03-21T11:28:14.225Z,99567.37
2018-03-21T11:30:42.698Z,99567.47
2018-03-21T11:33:11.200Z,99560.69
2018-03-21T11:35:39.710Z,99579.51
2018-03-21T11:38:08.239Z,99579.00
2018-03-21T11:40:36.725Z,99579.20
2018-03-21T11:43:05.249Z,99581.11
2018-03-21T11:45:33.746Z,99585.48
2018-03-21T11:48:02.246Z,99577.49
2018-03-21T11:50:30.863Z,99598.59
2018-03-21T11:52:59.378Z,99598.05
2018-03-21T11:55:27.887Z,99589.58
2018-03-21T11:57:56.371Z,99587.14
2018-03-21T12:00:24.860Z,99588.23
2018-03-21T12:02:53.381Z,99594.12
2018-03-21T12:05:21.875Z,99598.16
2018-03-21T12:07:50.434Z,99603.00
2018-03-21T12:10:18.907Z,99607.66
2018-03-21T12:12:47.408Z,99608.61
2018-03-21T12:15:15.917Z,99582.09
2018-03-21T12:17:44.428Z,99574.00
2018-03-21T12:20:12.915Z,99567.07
2018-03-21T12:22:41.390Z,99560.10
2018-03-21T12:25:09.906Z,99557.25
2018-03-21T12:27:38.411Z,99541.76
2018-03-21T12:30:07.598Z,99521.70
2018-03-21T12:32:36.162Z,99518.89
2018-03-21T12:35:04.668Z,99536.13
2018-03-21T12:37:33.230Z,99539.45
2018-03-21T12:40:01.717Z,99534.05
2018-03-21T12:42:30.230Z,99517.77
2018-03-21T12:44:58.754Z,99528.09
2018-03-21T12:47:27.217Z,99508.84
2018-03-21T12:49:55.876Z,99507.55
2018-03-21T12:52:24.334Z,99504.73
2018-03-21T12:54:52.858Z,99498.84
2018-03-21T12:57:21.350Z,99483.53
2018-03-21T12:59:49.834Z,99471.33
2018-03-21T13:02:18.358Z,99464.16
2018-03-21T13:04:46.826Z,99467.95
2018-03-21T13:07:15.337Z,99470.11
2018-03-21T13:09:43.803Z,99474.27
2018-03-21T13:12:12.267Z,99473.86
2018-03-21T13:14:40.772Z,99479.56
2018-03-21T13:17:09.245Z,99484.35
2018-03-21T13:19:37.770Z,99483.63
2018-03-21T13:22:06.260Z,99479.66
2018-03-21T13:24:34.726Z,99484.34
2018-03-21T13:27:03.238Z,99466.59
2018-03-21T13:29:31.760Z,99479.41
2018-03-21T13:32:00.262Z,99481.48
2018-03-21T13:34:28.829Z,99452.57
2018-03-21T13:36:57.357Z,99437.53
2018-03-21T13:39:25.863Z,99432.62
2018-03-21T13:41:54.488Z,99430.78
2018-03-21T13:44:22.987Z,99440.23
2018-03-21T13:46:51.511Z,99445.23
2018-03-21T13:49:19.987Z,99443.53
2018-03-21T13:51:48.470Z,99451.06
2018-03-21T13:54:16.999Z,99457.47
2018-03-21T13:56:46.390Z,99459.78
2018-03-21T13:59:14.868Z,99469.95
2018-03-21T14:01:43.379Z,99458.18
2018-03-21T14:04:11.882Z,99451.06
2018-03-21T14:06:40.366Z,99469.20
2018-03-21T14:09:08.870Z,99457.12
2018-03-21T14:11:37.395Z,99500.16
2018-03-21T14:14:05.968Z,99482.52
2018-03-21T14:16:34.494Z,99478.75
2018-03-21T14:19:03.025Z,99481.47
2018-03-21T14:21:31.539Z,99486.27
2018-03-21T14:24:00.022Z,99476.66
2018-03-21T14:26:28.541Z,99468.48
2018-03-21T14:28:57.005Z,99467.02
2018-03-21T14:31:25.569Z,99459.31
2018-03-21T14:33:54.034Z,99458.52
2018-03-21T14:36:22.536Z,99455.94
2018-03-21T14:38:50.998Z,99421.81
2018-03-21T14:41:19.518Z,99433.59
2018-03-21T14:43:47.982Z,99423.41
2018-03-21T14:46:16.518Z,99422.28
2018-03-21T14:48:44.990Z,99420.01
2018-03-21T14:51:13.525Z,99454.52
2018-03-21T14:53:42.062Z,99471.96
2018-03-21T14:56:10.582Z,99479.31
2018-03-21T14:58:39.094Z,99482.70
2018-03-21T15:01:07.597Z,99480.38
2018-03-21T15:03:36.126Z,99469.00
2018-03-21T15:06:04.638Z,99488.52
2018-03-21T15:08:33.352Z,99486.50
2018-03-21T15:11:01.829Z,99514.13
2018-03-21T15:13:30.341Z,99525.92
2018-03-21T15:15:58.846Z,99506.74
2018-03-21T15:18:27.317Z,99538.97
2018-03-21T15:20:55.866Z,99532.06
2018-03-21T15:23:24.404Z,99538.04
2018-03-21T15:25:52.935Z,99538.84
2018-03-21T15:28:21.450Z,99539.55
2018-03-21T15:30:49.975Z,99537.63
2018-03-21T15:33:18.538Z,99532.51
2018-03-21T15:35:47.042Z,99525.77
2018-03-21T15:38:15.514Z,99560.27
2018-03-21T15:40:44.014Z,99564.87
2018-03-21T15:43:12.474Z,99560.27
2018-03-21T15:45:40.986Z,99565.69
2018-03-21T15:48:09.454Z,99564.21
2018-03-21T15:50:37.958Z,99550.82
2018-03-21T15:53:06.419Z,99555.31
2018-03-21T15:55:34.973Z,99549.14
2018-03-21T15:58:03.426Z,99547.72
2018-03-21T16:00:31.934Z,99522.06
2018-03-21T16:03:00.405Z,99540.59
2018-03-21T16:05:28.916Z,99536.67
2018-03-21T16:07:57.420Z,99547.11
2018-03-21T16:10:25.887Z,99548.06
2018-03-21T16:12:54.395Z,99539.81
2018-03-21T16:15:22.866Z,99531.06
2018-03-21T16:17:51.351Z,99542.97
2018-03-21T16:20:19.858Z,99542.31
2018-03-21T16:22:48.321Z,99551.23
2018-03-21T16:25:16.838Z,99556.14
2018-03-21T16:27:45.298Z,99555.07
2018-03-21T16:30:13.758Z,99563.02
2018-03-21T16:32:42.223Z,99572.14
2018-03-21T16:35:10.761Z,99568.04
2018-03-21T16:37:39.266Z,99572.20
2018-03-21T16:40:07.816Z,99565.08
2018-03-21T16:42:36.292Z,99568.41
2018-03-21T16:45:04.770Z,99571.50
2018-03-21T16:47:33.276Z,99559.22
2018-03-21T16:50:01.733Z,99578.02
2018-03-21T16:52:30.233Z,99574.70
2018-03-21T16:54:58.730Z,99579.14
2018-03-21T16:57:27.326Z,99581.41
2018-03-21T16:59:55.804Z,99582.40
2018-03-21T17:02:24.266Z,99584.06
2018-03-21T17:04:52.770Z,99587.64
2018-03-21T17:07:21.234Z,99590.84
2018-03-21T17:09:49.738Z,99575.66
2018-03-21T17:12:18.240Z,99592.53
2018-03-21T17:14:46.705Z,99602.56
2018-03-21T17:17:15.210Z,99600.48
2018-03-21T17:19:43.714Z,99601.16
2018-03-21T17:22:12.227Z,99585.73
2018-03-21T17:24:40.686Z,99596.69
2018-03-21T17:27:09.192Z,99594.50
2018-03-21T17:29:37.696Z,99595.86
2018-03-21T17:32:06.173Z,99600.55
2018-03-21T17:34:34.656Z,99611.86
2018-03-21T17:37:03.162Z,99627.95
2018-03-21T17:39:31.639Z,99645.55
2018-03-21T17:42:00.147Z,99645.19
2018-03-21T17:44:28.714Z,99653.47
2018-03-21T17:46:57.210Z,99655.91
2018-03-21T17:49:25.711Z,99667.03
2018-03-21T17:51:54.175Z,99667.11
2018-03-21T17:54:22.670Z,99672.59
2018-03-21T17:56:51.144Z,99676.25
2018-03-21T17:59:19.642Z,99684.61
2018-03-21T18:01:48.118Z,99687.91
2018-03-21T18:04:16.673Z,99691.66
2018-03-21T18:06:45.125Z,99694.59
2018-03-21T18:09:13.626Z,99692.16
2018-03-21T18:11:42.090Z,99691.06
2018-03-21T18:14:10.605Z,99692.70
2018-03-21T18:16:39.079Z,99697.35
2018-03-21T18:19:07.588Z,99694.91
2018-03-21T18:21:36.060Z,99706.33
2018-03-21T18:24:04.574Z,99709.68
2018-03-21T18:26:33.038Z,99714.23
2018-03-21T18:29:01.542Z,99716.17
2018-03-21T18:31:30.038Z,99719.95
2018-03-21T18:33:58.538Z,99730.66
2018-03-21T18:36:27.046Z,99737.67
2018-03-21T18:38:55.514Z,99743.09
2018-03-21T18:41:24.024Z,99743.86
2018-03-21T18:43:52.500Z,99732.43
2018-03-21T18:46:20.999Z,99748.91
2018-03-21T18:48:49.460Z,99754.86
2018-03-21T18:51:18.004Z,99749.78
2018-03-21T18:53:46.509Z,99769.12
2018-03-21T18:56:14.966Z,99773.97
2018-03-21T18:58:43.466Z,99772.84
2018-03-21T19:01:11.966Z,99784.66
2018-03-21T19:03:40.473Z,99777.44
2018-03-21T19:06:08.982Z,99779.33
2018-03-21T19:08:37.501Z,99790.27
2018-03-21T19:11:05.998Z,99796.45
2018-03-21T19:13:34.518Z,99798.75
2018-03-21T19:16:02.986Z,99798.92
2018-03-21T19:18:31.450Z,99811.33
2018-03-21T19:20:59.951Z,99810.59
2018-03-21T19:23:28.414Z,99829.54
2018-03-21T19:25:56.921Z,99828.44
2018-03-21T19:28:25.418Z,99835.44
2018-03-21T19:30:53.881Z,99828.31
2018-03-21T19:33:22.386Z,99831.33
2018-03-21T19:35:50.854Z,99842.62
2018-03-21T19:38:20.160Z,99844.38
2018-03-21T19:40:48.623Z,99848.86
2018-03-21T19:43:17.160Z,99849.92
2018-03-21T19:45:45.943Z,99851.39
2018-03-21T19:48:14.431Z,99848.34
2018-03-21T19:50:42.942Z,99857.75
2018-03-21T19:53:11.405Z,99859.61
2018-03-21T19:55:39.924Z,99871.36
2018-03-21T19:58:08.438Z,99878.26
2018-03-21T20:00:36.941Z,99872.34
2018-03-21T20:03:05.410Z,99882.58
2018-03-21T20:05:33.919Z,99876.66
2018-03-21T20:08:02.472Z,99880.41
2018-03-21T20:10:30.946Z,99886.92
2018-03-21T20:12:59.406Z,99887.95
2018-03-21T20:15:27.907Z,99887.51
2018-03-21T20:17:56.406Z,99891.80
2018-03-21T20:20:24.914Z,99900.83
2018-03-21T20:22:53.414Z,99902.25
2018-03-21T20:25:21.870Z,99907.48
2018-03-21T20:27:50.343Z,99901.92
2018-03-21T20:30:18.858Z,99911.90
2018-03-21T20:32:47.314Z,99898.89
2018-03-21T20:35:15.774Z,99913.84
2018-03-21T20:37:44.270Z,99921.50
2018-03-21T20:40:12.785Z,99926.39
2018-03-21T20:42:41.300Z,99926.91
2018-03-21T20:45:09.844Z,99929.95
2018-03-21T20:47:38.374Z,99932.27
2018-03-21T20:50:06.850Z,99926.94
2018-03-21T20:52:35.354Z,99920.62
2018-03-21T20:55:03.870Z,99923.16
2018-03-21T20:57:32.330Z,99916.61
2018-03-21T21:00:00.854Z,99932.58
2018-03-21T21:02:29.367Z,99934.60
2018-03-21T21:04:57.843Z,99949.88
2018-03-21T21:07:26.342Z,99950.45
2018-03-21T21:09:54.808Z,99939.44
2018-03-21T21:12:23.318Z,99952.28
2018-03-21T21:14:51.807Z,99951.59
2018-03-21T21:17:20.262Z,99945.36
2018-03-21T21:19:48.754Z,99939.34
2018-03-21T21:22:17.294Z,99938.48
2018-03-21T21:24:45.750Z,99933.95
2018-03-21T21:27:14.226Z,99936.45
2018-03-21T21:29:42.736Z,99942.00
2018-03-21T21:32:11.232Z,99931.06
2018-03-21T21:34:39.698Z,99946.89
2018-03-21T21:37:08.194Z,99939.19
2018-03-21T21:39:36.704Z,99929.63
2018-03-21T21:42:05.183Z,99932.33
2018-03-21T21:44:33.677Z,99941.33
2018-03-21T21:47:02.146Z,99947.13
2018-03-21T21:49:30.646Z,99952.63
2018-03-21T21:51:59.110Z,99946.86
2018-03-21T21:54:27.614Z,99944.84
2018-03-21T21:56:56.075Z,99945.51
2018-03-21T21:59:24.557Z,99947.67
2018-03-21T22:01:53.053Z,99943.11
2018-03-21T22:04:21.536Z,99950.80
2018-03-21T22:06:50.054Z,99951.67
2018-03-21T22:09:18.522Z,99942.69
2018-03-21T22:11:46.994Z,99938.73
2018-03-21T22:14:15.498Z,99948.70
2018-03-21T22:16:44.006Z,99964.02
2018-03-21T22:19:12.475Z,99945.72
2018-03-21T22:21:40.926Z,99967.12
2018-03-21T22:24:09.418Z,99970.08
2018-03-21T22:26:37.902Z,99964.27
2018-03-21T22:29:06.398Z,99969.14
2018-03-21T22:31:34.900Z,99978.41
2018-03-21T22:34:03.369Z,99996.22
2018-03-21T22:36:31.861Z,99989.50
2018-03-21T22:39:00.483Z,100004.86
2018-03-21T22:41:28.957Z,100003.25
2018-03-21T22:43:57.425Z,100006.94
2018-03-21T22:46:25.926Z,100014.47
2018-03-21T22:48:54.389Z,100009.87
2018-03-21T22:51:22.854Z,100013.08
2018-03-21T22:53:51.302Z,99994.98
2018-03-21T22:56:19.757Z,99988.31
2018-03-21T22:58:48.258Z,100003.78
2018-03-21T23:01:16.721Z,100002.02
2018-03-21T23:03:45.258Z,100007.80
2018-03-21T23:06:13.758Z,100000.49
2018-03-21T23:08:42.267Z,100014.08
2018-03-21T23:11:10.742Z,100010.62
2018-03-21T23:13:39.241Z,100010.20
2018-03-21T23:16:07.720Z,100023.83
2018-03-21T23:18:36.223Z,100021.97
2018-03-21T23:21:04.753Z,100013.05
2018-03-21T23:23:33.222Z,100015.75
2018-03-21T23:26:01.737Z,100021.03
2018-03-21T23:28:30.241Z,100033.30
2018-03-21T23:30:58.749Z,100034.15
2018-03-21T23:33:27.206Z,100021.22
2018-03-21T23:35:55.711Z,100018.34
2018-03-21T23:38:24.182Z,100011.91
2018-03-21T23:40:52.653Z,100020.66
2018-03-21T23:43:21.153Z,100013.20
2018-03-21T23:45:49.656Z,100017.84
2018-03-21T23:48:18.170Z,100019.69
2018-03-21T23:50:46.694Z,100022.30
2018-03-21T23:53:15.199Z,100022.91
2018-03-21T23:55:43.658Z,100018.62
2018-03-21T23:58:12.168Z,100012.67
